Terminal Aerodrome Forecast
Issued by NWS

Home | Current Version | Previous Version | Text Only | Print | Product List | Glossary On
Versions: 1 2 3 4 5 6 7 8 9 10 11 12 13 14 15 16 17
120
FTUS41 KGYX 302320
TAFAUG
TAF
KAUG 302320Z 3100/3124 20004KT P6SM SCT080 BKN250
     FM311400 26007KT P6SM BKN100
     FM312100 25007KT P6SM VCSH SCT050 OVC100=

USA.gov is the U.S. government's official web portal to all federal, state and local government web resources and services.